Durham, Arkansas
Current Conditions -  °F | °C
As of 4:53 AM on Sunday 21 Dec 2014 (Local Time) from KFYV Reporting Station
Overcast Overcast  
Wind Chill: 38°   Ceiling: 1700
Heat Index: 41°   Visibility: 10mi
Dew Point: 39°   Wind: 5mph
Humidity: 93%   Direction: 180°S
Pressure: 30.12"   Gusts: NA
Location:  35.9902°N, 94.083°W
Report Text: KFYV 211053Z AUTO 18004KT 10SM OVC017 05/04 A3012 RMK AO2 SLP204 T00500039
Loading
Personal Weather Stations






























Interactive Weather Map New forecast layout! Learn more

10-Day Weather Forecast

Advertisements
Track Severe Weather on mobile